sensor_id;sensor_type;location;lat;lon;timestamp;P1;durP1;ratioP1;P2;durP2;ratioP2
32876;SDS011;19226;51.600;8.034;2024-02-26T00:02:37;0.40;;;0.40;;
32876;SDS011;19226;51.600;8.034;2024-02-26T00:05:22;0.40;;;0.40;;
32876;SDS011;19226;51.600;8.034;2024-02-26T00:08:06;0.40;;;0.40;;
32876;SDS011;19226;51.600;8.034;2024-02-26T00:10:53;0.40;;;0.40;;
32876;SDS011;19226;51.600;8.034;2024-02-26T00:13:37;0.40;;;0.40;;
32876;SDS011;19226;51.600;8.034;2024-02-26T00:16:22;0.40;;;0.40;;
32876;SDS011;19226;51.600;8.034;2024-02-26T00:19:06;0.40;;;0.40;;
32876;SDS011;19226;51.600;8.034;2024-02-26T00:21:51;0.40;;;0.40;;
32876;SDS011;19226;51.600;8.034;2024-02-26T00:24:37;0.40;;;0.40;;
32876;SDS011;19226;51.600;8.034;2024-02-26T00:27:24;0.40;;;0.40;;
32876;SDS011;19226;51.600;8.034;2024-02-26T00:30:08;0.40;;;0.40;;
32876;SDS011;19226;51.600;8.034;2024-02-26T00:32:53;0.40;;;0.40;;
32876;SDS011;19226;51.600;8.034;2024-02-26T00:35:38;0.40;;;0.40;;
32876;SDS011;19226;51.600;8.034;2024-02-26T00:38:22;0.43;;;0.43;;
32876;SDS011;19226;51.600;8.034;2024-02-26T00:41:07;0.40;;;0.40;;
32876;SDS011;19226;51.600;8.034;2024-02-26T00:43:52;0.40;;;0.40;;
32876;SDS011;19226;51.600;8.034;2024-02-26T00:46:36;0.40;;;0.40;;
32876;SDS011;19226;51.600;8.034;2024-02-26T00:49:21;0.43;;;0.43;;
32876;SDS011;19226;51.600;8.034;2024-02-26T00:52:05;0.40;;;0.40;;
32876;SDS011;19226;51.600;8.034;2024-02-26T00:54:50;0.40;;;0.40;;
32876;SDS011;19226;51.600;8.034;2024-02-26T00:57:34;0.40;;;0.40;;
32876;SDS011;19226;51.600;8.034;2024-02-26T01:00:19;0.30;;;0.30;;
32876;SDS011;19226;51.600;8.034;2024-02-26T01:03:03;0.40;;;0.40;;
32876;SDS011;19226;51.600;8.034;2024-02-26T01:05:48;0.40;;;0.40;;
32876;SDS011;19226;51.600;8.034;2024-02-26T01:08:33;0.40;;;0.40;;
32876;SDS011;19226;51.600;8.034;2024-02-26T01:11:19;0.40;;;0.40;;
32876;SDS011;19226;51.600;8.034;2024-02-26T01:14:04;0.40;;;0.40;;
32876;SDS011;19226;51.600;8.034;2024-02-26T01:16:48;0.40;;;0.40;;
32876;SDS011;19226;51.600;8.034;2024-02-26T01:19:33;0.40;;;0.40;;
32876;SDS011;19226;51.600;8.034;2024-02-26T01:22:17;0.40;;;0.40;;
32876;SDS011;19226;51.600;8.034;2024-02-26T01:25:02;0.40;;;0.40;;
32876;SDS011;19226;51.600;8.034;2024-02-26T01:27:47;0.40;;;0.40;;
32876;SDS011;19226;51.600;8.034;2024-02-26T01:30:31;0.40;;;0.40;;
32876;SDS011;19226;51.600;8.034;2024-02-26T01:33:16;0.40;;;0.40;;
32876;SDS011;19226;51.600;8.034;2024-02-26T01:36:00;0.40;;;0.40;;
32876;SDS011;19226;51.600;8.034;2024-02-26T01:38:45;0.40;;;0.40;;
32876;SDS011;19226;51.600;8.034;2024-02-26T01:41:29;0.40;;;0.40;;
32876;SDS011;19226;51.600;8.034;2024-02-26T01:44:14;0.40;;;0.40;;
32876;SDS011;19226;51.600;8.034;2024-02-26T01:46:58;0.40;;;0.40;;
32876;SDS011;19226;51.600;8.034;2024-02-26T01:49:45;0.40;;;0.40;;
32876;SDS011;19226;51.600;8.034;2024-02-26T01:52:29;0.40;;;0.40;;
32876;SDS011;19226;51.600;8.034;2024-02-26T01:55:14;0.40;;;0.40;;
32876;SDS011;19226;51.600;8.034;2024-02-26T01:57:59;0.40;;;0.40;;
32876;SDS011;19226;51.600;8.034;2024-02-26T02:00:44;0.40;;;0.40;;
32876;SDS011;19226;51.600;8.034;2024-02-26T02:03:29;0.40;;;0.40;;
32876;SDS011;19226;51.600;8.034;2024-02-26T02:06:14;0.40;;;0.40;;
32876;SDS011;19226;51.600;8.034;2024-02-26T02:08:59;0.40;;;0.40;;
32876;SDS011;19226;51.600;8.034;2024-02-26T02:11:49;0.40;;;0.40;;
32876;SDS011;19226;51.600;8.034;2024-02-26T02:14:34;0.40;;;0.40;;
32876;SDS011;19226;51.600;8.034;2024-02-26T02:17:19;0.40;;;0.40;;
32876;SDS011;19226;51.600;8.034;2024-02-26T02:20:04;0.40;;;0.40;;
32876;SDS011;19226;51.600;8.034;2024-02-26T02:23:01;0.40;;;0.40;;
32876;SDS011;19226;51.600;8.034;2024-02-26T02:25:46;0.38;;;0.38;;
32876;SDS011;19226;51.600;8.034;2024-02-26T02:28:31;0.40;;;0.40;;
32876;SDS011;19226;51.600;8.034;2024-02-26T02:31:16;0.40;;;0.40;;
32876;SDS011;19226;51.600;8.034;2024-02-26T02:34:01;0.40;;;0.40;;
32876;SDS011;19226;51.600;8.034;2024-02-26T02:36:52;0.40;;;0.40;;
32876;SDS011;19226;51.600;8.034;2024-02-26T02:39:37;0.40;;;0.40;;
32876;SDS011;19226;51.600;8.034;2024-02-26T02:42:21;0.40;;;0.40;;
32876;SDS011;19226;51.600;8.034;2024-02-26T02:45:06;0.38;;;0.38;;
32876;SDS011;19226;51.600;8.034;2024-02-26T02:47:53;0.30;;;0.30;;
32876;SDS011;19226;51.600;8.034;2024-02-26T02:50:39;0.30;;;0.30;;
32876;SDS011;19226;51.600;8.034;2024-02-26T02:53:23;0.40;;;0.40;;
32876;SDS011;19226;51.600;8.034;2024-02-26T02:56:08;0.40;;;0.40;;
32876;SDS011;19226;51.600;8.034;2024-02-26T02:58:52;0.40;;;0.40;;
32876;SDS011;19226;51.600;8.034;2024-02-26T03:01:37;0.40;;;0.40;;
32876;SDS011;19226;51.600;8.034;2024-02-26T03:04:22;0.40;;;0.40;;
32876;SDS011;19226;51.600;8.034;2024-02-26T03:07:06;0.30;;;0.30;;
32876;SDS011;19226;51.600;8.034;2024-02-26T03:09:51;0.40;;;0.40;;
32876;SDS011;19226;51.600;8.034;2024-02-26T03:12:35;0.40;;;0.40;;
32876;SDS011;19226;51.600;8.034;2024-02-26T03:15:20;0.30;;;0.30;;
32876;SDS011;19226;51.600;8.034;2024-02-26T03:18:04;0.40;;;0.40;;
32876;SDS011;19226;51.600;8.034;2024-02-26T03:20:49;0.30;;;0.30;;
32876;SDS011;19226;51.600;8.034;2024-02-26T03:23:33;0.40;;;0.40;;
32876;SDS011;19226;51.600;8.034;2024-02-26T03:26:20;0.40;;;0.40;;
32876;SDS011;19226;51.600;8.034;2024-02-26T03:29:05;0.40;;;0.40;;
32876;SDS011;19226;51.600;8.034;2024-02-26T03:31:50;0.38;;;0.38;;
32876;SDS011;19226;51.600;8.034;2024-02-26T03:34:34;0.40;;;0.40;;
32876;SDS011;19226;51.600;8.034;2024-02-26T03:37:19;0.40;;;0.40;;
32876;SDS011;19226;51.600;8.034;2024-02-26T03:40:04;0.40;;;0.40;;
32876;SDS011;19226;51.600;8.034;2024-02-26T03:42:48;0.40;;;0.40;;
32876;SDS011;19226;51.600;8.034;2024-02-26T03:45:33;0.40;;;0.40;;
32876;SDS011;19226;51.600;8.034;2024-02-26T03:48:18;0.40;;;0.40;;
32876;SDS011;19226;51.600;8.034;2024-02-26T03:51:03;0.30;;;0.30;;
32876;SDS011;19226;51.600;8.034;2024-02-26T03:53:47;0.40;;;0.40;;
32876;SDS011;19226;51.600;8.034;2024-02-26T03:56:32;0.40;;;0.40;;
32876;SDS011;19226;51.600;8.034;2024-02-26T03:59:16;0.40;;;0.40;;
32876;SDS011;19226;51.600;8.034;2024-02-26T04:02:01;0.40;;;0.40;;
32876;SDS011;19226;51.600;8.034;2024-02-26T04:04:46;0.30;;;0.30;;
32876;SDS011;19226;51.600;8.034;2024-02-26T04:07:31;0.40;;;0.40;;
32876;SDS011;19226;51.600;8.034;2024-02-26T04:10:15;0.38;;;0.38;;
32876;SDS011;19226;51.600;8.034;2024-02-26T04:13:01;0.40;;;0.40;;
32876;SDS011;19226;51.600;8.034;2024-02-26T04:15:45;0.40;;;0.40;;
32876;SDS011;19226;51.600;8.034;2024-02-26T04:18:30;0.30;;;0.30;;
32876;SDS011;19226;51.600;8.034;2024-02-26T04:21:16;0.30;;;0.30;;
32876;SDS011;19226;51.600;8.034;2024-02-26T04:24:00;0.38;;;0.38;;
32876;SDS011;19226;51.600;8.034;2024-02-26T04:26:46;0.40;;;0.40;;
32876;SDS011;19226;51.600;8.034;2024-02-26T04:29:31;0.40;;;0.40;;
32876;SDS011;19226;51.600;8.034;2024-02-26T04:32:15;0.40;;;0.40;;
32876;SDS011;19226;51.600;8.034;2024-02-26T04:35:00;0.40;;;0.40;;
32876;SDS011;19226;51.600;8.034;2024-02-26T04:37:46;0.40;;;0.40;;
32876;SDS011;19226;51.600;8.034;2024-02-26T04:40:30;0.40;;;0.40;;
32876;SDS011;19226;51.600;8.034;2024-02-26T04:43:15;0.40;;;0.40;;
32876;SDS011;19226;51.600;8.034;2024-02-26T04:46:01;0.30;;;0.30;;
32876;SDS011;19226;51.600;8.034;2024-02-26T04:48:46;0.43;;;0.43;;
32876;SDS011;19226;51.600;8.034;2024-02-26T04:51:30;0.40;;;0.40;;
32876;SDS011;19226;51.600;8.034;2024-02-26T04:54:15;0.30;;;0.30;;
32876;SDS011;19226;51.600;8.034;2024-02-26T04:56:59;0.40;;;0.40;;
32876;SDS011;19226;51.600;8.034;2024-02-26T04:59:44;0.35;;;0.35;;
32876;SDS011;19226;51.600;8.034;2024-02-26T05:02:29;0.30;;;0.30;;
32876;SDS011;19226;51.600;8.034;2024-02-26T05:05:16;0.40;;;0.40;;
32876;SDS011;19226;51.600;8.034;2024-02-26T05:08:01;0.30;;;0.30;;
32876;SDS011;19226;51.600;8.034;2024-02-26T05:10:46;0.40;;;0.40;;
32876;SDS011;19226;51.600;8.034;2024-02-26T05:13:31;0.40;;;0.40;;
32876;SDS011;19226;51.600;8.034;2024-02-26T05:16:16;0.30;;;0.30;;
32876;SDS011;19226;51.600;8.034;2024-02-26T05:19:00;0.40;;;0.40;;
32876;SDS011;19226;51.600;8.034;2024-02-26T05:21:45;0.40;;;0.40;;
32876;SDS011;19226;51.600;8.034;2024-02-26T05:24:31;0.38;;;0.38;;
32876;SDS011;19226;51.600;8.034;2024-02-26T05:27:15;0.38;;;0.38;;
32876;SDS011;19226;51.600;8.034;2024-02-26T05:29:59;0.40;;;0.40;;
32876;SDS011;19226;51.600;8.034;2024-02-26T05:32:44;0.40;;;0.40;;
32876;SDS011;19226;51.600;8.034;2024-02-26T05:35:28;0.30;;;0.30;;
32876;SDS011;19226;51.600;8.034;2024-02-26T05:38:13;0.30;;;0.30;;
32876;SDS011;19226;51.600;8.034;2024-02-26T05:41:01;0.40;;;0.40;;
32876;SDS011;19226;51.600;8.034;2024-02-26T05:43:45;0.40;;;0.40;;
32876;SDS011;19226;51.600;8.034;2024-02-26T05:46:30;0.45;;;0.45;;
32876;SDS011;19226;51.600;8.034;2024-02-26T05:49:14;0.30;;;0.30;;
32876;SDS011;19226;51.600;8.034;2024-02-26T05:52:01;0.40;;;0.40;;
32876;SDS011;19226;51.600;8.034;2024-02-26T05:54:46;0.40;;;0.40;;
32876;SDS011;19226;51.600;8.034;2024-02-26T05:57:34;0.30;;;0.30;;
32876;SDS011;19226;51.600;8.034;2024-02-26T06:00:19;0.35;;;0.35;;
32876;SDS011;19226;51.600;8.034;2024-02-26T06:03:04;0.35;;;0.35;;
32876;SDS011;19226;51.600;8.034;2024-02-26T06:05:49;0.40;;;0.40;;
32876;SDS011;19226;51.600;8.034;2024-02-26T06:08:36;0.40;;;0.40;;
32876;SDS011;19226;51.600;8.034;2024-02-26T06:11:21;0.40;;;0.40;;
32876;SDS011;19226;51.600;8.034;2024-02-26T06:14:06;0.30;;;0.30;;
32876;SDS011;19226;51.600;8.034;2024-02-26T06:16:51;0.35;;;0.35;;
32876;SDS011;19226;51.600;8.034;2024-02-26T06:19:35;0.40;;;0.40;;
32876;SDS011;19226;51.600;8.034;2024-02-26T06:22:20;0.40;;;0.40;;
32876;SDS011;19226;51.600;8.034;2024-02-26T06:25:04;0.30;;;0.30;;
32876;SDS011;19226;51.600;8.034;2024-02-26T06:27:49;0.30;;;0.30;;
32876;SDS011;19226;51.600;8.034;2024-02-26T06:30:34;0.30;;;0.30;;
32876;SDS011;19226;51.600;8.034;2024-02-26T06:33:20;0.40;;;0.40;;
32876;SDS011;19226;51.600;8.034;2024-02-26T06:36:05;0.38;;;0.38;;
32876;SDS011;19226;51.600;8.034;2024-02-26T06:38:49;0.40;;;0.40;;
32876;SDS011;19226;51.600;8.034;2024-02-26T06:41:35;0.40;;;0.40;;
32876;SDS011;19226;51.600;8.034;2024-02-26T06:44:20;0.40;;;0.40;;
32876;SDS011;19226;51.600;8.034;2024-02-26T06:47:04;0.30;;;0.30;;
32876;SDS011;19226;51.600;8.034;2024-02-26T06:49:49;0.30;;;0.30;;
32876;SDS011;19226;51.600;8.034;2024-02-26T06:52:33;0.30;;;0.30;;
32876;SDS011;19226;51.600;8.034;2024-02-26T06:55:18;0.40;;;0.40;;
32876;SDS011;19226;51.600;8.034;2024-02-26T06:58:03;0.30;;;0.30;;
32876;SDS011;19226;51.600;8.034;2024-02-26T07:00:47;0.38;;;0.38;;
32876;SDS011;19226;51.600;8.034;2024-02-26T07:03:32;0.30;;;0.30;;
32876;SDS011;19226;51.600;8.034;2024-02-26T07:06:17;0.30;;;0.30;;
32876;SDS011;19226;51.600;8.034;2024-02-26T07:09:01;0.40;;;0.40;;
32876;SDS011;19226;51.600;8.034;2024-02-26T07:11:46;0.30;;;0.30;;
32876;SDS011;19226;51.600;8.034;2024-02-26T07:14:30;0.30;;;0.30;;
32876;SDS011;19226;51.600;8.034;2024-02-26T07:17:16;0.40;;;0.40;;
32876;SDS011;19226;51.600;8.034;2024-02-26T07:20:00;0.38;;;0.38;;
32876;SDS011;19226;51.600;8.034;2024-02-26T07:22:48;0.30;;;0.30;;
32876;SDS011;19226;51.600;8.034;2024-02-26T07:25:32;0.40;;;0.40;;
32876;SDS011;19226;51.600;8.034;2024-02-26T07:28:17;0.30;;;0.30;;
32876;SDS011;19226;51.600;8.034;2024-02-26T07:31:01;0.40;;;0.40;;
32876;SDS011;19226;51.600;8.034;2024-02-26T07:33:47;0.30;;;0.30;;
32876;SDS011;19226;51.600;8.034;2024-02-26T07:36:31;0.40;;;0.40;;
32876;SDS011;19226;51.600;8.034;2024-02-26T07:39:16;0.30;;;0.30;;
32876;SDS011;19226;51.600;8.034;2024-02-26T07:42:00;0.30;;;0.30;;
32876;SDS011;19226;51.600;8.034;2024-02-26T07:44:45;0.40;;;0.40;;
32876;SDS011;19226;51.600;8.034;2024-02-26T07:47:30;0.30;;;0.30;;
32876;SDS011;19226;51.600;8.034;2024-02-26T07:50:15;0.40;;;0.40;;
32876;SDS011;19226;51.600;8.034;2024-02-26T07:53:00;0.40;;;0.40;;
32876;SDS011;19226;51.600;8.034;2024-02-26T07:55:44;0.30;;;0.30;;
32876;SDS011;19226;51.600;8.034;2024-02-26T07:58:28;0.40;;;0.40;;
32876;SDS011;19226;51.600;8.034;2024-02-26T08:01:13;0.30;;;0.30;;
32876;SDS011;19226;51.600;8.034;2024-02-26T08:04:01;0.30;;;0.30;;
32876;SDS011;19226;51.600;8.034;2024-02-26T08:06:45;0.35;;;0.35;;
32876;SDS011;19226;51.600;8.034;2024-02-26T08:09:30;0.30;;;0.30;;
32876;SDS011;19226;51.600;8.034;2024-02-26T08:12:14;0.30;;;0.30;;
32876;SDS011;19226;51.600;8.034;2024-02-26T08:14:59;0.30;;;0.30;;
32876;SDS011;19226;51.600;8.034;2024-02-26T08:17:44;0.30;;;0.30;;
32876;SDS011;19226;51.600;8.034;2024-02-26T08:20:29;0.30;;;0.30;;
32876;SDS011;19226;51.600;8.034;2024-02-26T08:23:13;0.30;;;0.30;;
32876;SDS011;19226;51.600;8.034;2024-02-26T08:25:58;0.30;;;0.30;;
32876;SDS011;19226;51.600;8.034;2024-02-26T08:28:42;0.30;;;0.30;;
32876;SDS011;19226;51.600;8.034;2024-02-26T08:31:28;0.30;;;0.30;;
32876;SDS011;19226;51.600;8.034;2024-02-26T08:34:14;0.30;;;0.30;;
32876;SDS011;19226;51.600;8.034;2024-02-26T08:36:59;0.30;;;0.30;;
32876;SDS011;19226;51.600;8.034;2024-02-26T08:39:43;0.30;;;0.30;;
32876;SDS011;19226;51.600;8.034;2024-02-26T08:42:29;0.30;;;0.30;;
32876;SDS011;19226;51.600;8.034;2024-02-26T08:45:14;0.30;;;0.30;;
32876;SDS011;19226;51.600;8.034;2024-02-26T08:47:58;0.30;;;0.30;;
32876;SDS011;19226;51.600;8.034;2024-02-26T08:50:43;0.30;;;0.30;;
32876;SDS011;19226;51.600;8.034;2024-02-26T08:53:27;0.30;;;0.30;;
32876;SDS011;19226;51.600;8.034;2024-02-26T08:56:12;0.30;;;0.30;;
32876;SDS011;19226;51.600;8.034;2024-02-26T08:59:00;0.38;;;0.38;;
32876;SDS011;19226;51.600;8.034;2024-02-26T09:01:47;0.30;;;0.30;;
32876;SDS011;19226;51.600;8.034;2024-02-26T09:04:32;0.30;;;0.30;;
32876;SDS011;19226;51.600;8.034;2024-02-26T09:07:16;0.30;;;0.30;;
32876;SDS011;19226;51.600;8.034;2024-02-26T09:10:01;0.20;;;0.20;;
32876;SDS011;19226;51.600;8.034;2024-02-26T09:12:46;0.30;;;0.30;;
32876;SDS011;19226;51.600;8.034;2024-02-26T09:15:30;0.30;;;0.30;;
32876;SDS011;19226;51.600;8.034;2024-02-26T09:18:15;0.20;;;0.20;;
32876;SDS011;19226;51.600;8.034;2024-02-26T09:21:03;0.20;;;0.20;;
32876;SDS011;19226;51.600;8.034;2024-02-26T09:23:52;0.20;;;0.20;;
32876;SDS011;19226;51.600;8.034;2024-02-26T09:26:37;0.30;;;0.30;;
32876;SDS011;19226;51.600;8.034;2024-02-26T09:29:22;0.30;;;0.30;;
32876;SDS011;19226;51.600;8.034;2024-02-26T09:32:09;0.25;;;0.25;;
32876;SDS011;19226;51.600;8.034;2024-02-26T09:34:54;0.30;;;0.30;;
32876;SDS011;19226;51.600;8.034;2024-02-26T09:37:38;0.30;;;0.30;;
32876;SDS011;19226;51.600;8.034;2024-02-26T09:40:23;0.30;;;0.30;;
32876;SDS011;19226;51.600;8.034;2024-02-26T09:43:07;0.30;;;0.30;;
32876;SDS011;19226;51.600;8.034;2024-02-26T09:45:59;0.30;;;0.30;;
32876;SDS011;19226;51.600;8.034;2024-02-26T09:48:43;0.30;;;0.30;;
32876;SDS011;19226;51.600;8.034;2024-02-26T09:51:28;0.28;;;0.28;;
32876;SDS011;19226;51.600;8.034;2024-02-26T09:54:13;0.30;;;0.30;;
32876;SDS011;19226;51.600;8.034;2024-02-26T09:57:00;0.20;;;0.20;;
32876;SDS011;19226;51.600;8.034;2024-02-26T09:59:47;0.20;;;0.20;;
32876;SDS011;19226;51.600;8.034;2024-02-26T10:02:33;0.20;;;0.20;;
32876;SDS011;19226;51.600;8.034;2024-02-26T10:05:20;0.25;;;0.25;;
32876;SDS011;19226;51.600;8.034;2024-02-26T10:08:06;0.20;;;0.20;;
32876;SDS011;19226;51.600;8.034;2024-02-26T10:10:52;0.20;;;0.20;;
32876;SDS011;19226;51.600;8.034;2024-02-26T10:13:38;0.28;;;0.28;;
32876;SDS011;19226;51.600;8.034;2024-02-26T10:16:23;0.20;;;0.20;;
32876;SDS011;19226;51.600;8.034;2024-02-26T10:19:10;0.20;;;0.20;;
32876;SDS011;19226;51.600;8.034;2024-02-26T10:22:10;0.20;;;0.20;;
32876;SDS011;19226;51.600;8.034;2024-02-26T10:24:54;0.20;;;0.20;;
32876;SDS011;19226;51.600;8.034;2024-02-26T10:27:42;0.20;;;0.20;;
32876;SDS011;19226;51.600;8.034;2024-02-26T10:30:27;0.20;;;0.20;;
32876;SDS011;19226;51.600;8.034;2024-02-26T10:33:14;0.20;;;0.20;;
32876;SDS011;19226;51.600;8.034;2024-02-26T10:35:59;0.20;;;0.20;;
32876;SDS011;19226;51.600;8.034;2024-02-26T10:38:43;0.20;;;0.20;;
32876;SDS011;19226;51.600;8.034;2024-02-26T10:41:28;0.20;;;0.20;;
32876;SDS011;19226;51.600;8.034;2024-02-26T10:44:13;0.20;;;0.20;;
32876;SDS011;19226;51.600;8.034;2024-02-26T10:46:57;0.20;;;0.20;;
32876;SDS011;19226;51.600;8.034;2024-02-26T10:49:46;0.20;;;0.20;;
32876;SDS011;19226;51.600;8.034;2024-02-26T10:52:32;0.20;;;0.20;;
32876;SDS011;19226;51.600;8.034;2024-02-26T10:55:17;0.20;;;0.20;;
32876;SDS011;19226;51.600;8.034;2024-02-26T10:58:04;0.20;;;0.20;;
32876;SDS011;19226;51.600;8.034;2024-02-26T11:00:51;0.20;;;0.20;;
32876;SDS011;19226;51.600;8.034;2024-02-26T11:03:36;0.20;;;0.20;;
32876;SDS011;19226;51.600;8.034;2024-02-26T11:06:23;0.20;;;0.20;;
32876;SDS011;19226;51.600;8.034;2024-02-26T11:09:10;0.20;;;0.20;;
32876;SDS011;19226;51.600;8.034;2024-02-26T11:11:59;0.20;;;0.20;;
32876;SDS011;19226;51.600;8.034;2024-02-26T11:14:46;0.20;;;0.20;;
32876;SDS011;19226;51.600;8.034;2024-02-26T11:17:30;0.20;;;0.20;;
32876;SDS011;19226;51.600;8.034;2024-02-26T11:20:16;0.20;;;0.20;;
32876;SDS011;19226;51.600;8.034;2024-02-26T11:23:03;0.20;;;0.20;;
32876;SDS011;19226;51.600;8.034;2024-02-26T11:25:52;0.20;;;0.20;;
32876;SDS011;19226;51.600;8.034;2024-02-26T11:28:39;0.20;;;0.20;;
32876;SDS011;19226;51.600;8.034;2024-02-26T11:31:25;0.10;;;0.10;;
32876;SDS011;19226;51.600;8.034;2024-02-26T11:34:11;0.20;;;0.20;;
32876;SDS011;19226;51.600;8.034;2024-02-26T11:36:56;0.20;;;0.20;;
32876;SDS011;19226;51.600;8.034;2024-02-26T11:39:41;0.17;;;0.17;;
32876;SDS011;19226;51.600;8.034;2024-02-26T11:42:25;0.20;;;0.20;;
32876;SDS011;19226;51.600;8.034;2024-02-26T11:48:28;0.20;;;0.20;;
32876;SDS011;19226;51.600;8.034;2024-02-26T11:51:13;0.20;;;0.20;;
32876;SDS011;19226;51.600;8.034;2024-02-26T11:53:58;0.20;;;0.20;;
32876;SDS011;19226;51.600;8.034;2024-02-26T11:56:42;0.20;;;0.20;;
32876;SDS011;19226;51.600;8.034;2024-02-26T11:59:38;0.20;;;0.20;;
32876;SDS011;19226;51.600;8.034;2024-02-26T12:05:30;0.20;;;0.20;;
32876;SDS011;19226;51.600;8.034;2024-02-26T12:08:16;0.10;;;0.10;;
32876;SDS011;19226;51.600;8.034;2024-02-26T12:11:03;0.10;;;0.10;;
32876;SDS011;19226;51.600;8.034;2024-02-26T12:13:58;0.10;;;0.10;;
32876;SDS011;19226;51.600;8.034;2024-02-26T12:16:42;0.13;;;0.13;;
32876;SDS011;19226;51.600;8.034;2024-02-26T12:19:29;0.20;;;0.20;;
32876;SDS011;19226;51.600;8.034;2024-02-26T12:22:15;0.20;;;0.20;;
32876;SDS011;19226;51.600;8.034;2024-02-26T12:25:00;0.20;;;0.20;;
32876;SDS011;19226;51.600;8.034;2024-02-26T12:27:46;0.15;;;0.15;;
32876;SDS011;19226;51.600;8.034;2024-02-26T12:30:31;0.20;;;0.20;;
32876;SDS011;19226;51.600;8.034;2024-02-26T12:33:18;0.13;;;0.13;;
32876;SDS011;19226;51.600;8.034;2024-02-26T12:36:03;0.10;;;0.10;;
32876;SDS011;19226;51.600;8.034;2024-02-26T12:38:48;0.10;;;0.10;;
32876;SDS011;19226;51.600;8.034;2024-02-26T12:41:37;0.10;;;0.10;;
32876;SDS011;19226;51.600;8.034;2024-02-26T12:44:25;0.10;;;0.10;;
32876;SDS011;19226;51.600;8.034;2024-02-26T12:47:10;0.10;;;0.10;;
32876;SDS011;19226;51.600;8.034;2024-02-26T12:50:00;0.10;;;0.10;;
32876;SDS011;19226;51.600;8.034;2024-02-26T12:52:45;0.20;;;0.20;;
32876;SDS011;19226;51.600;8.034;2024-02-26T12:55:31;0.10;;;0.10;;
32876;SDS011;19226;51.600;8.034;2024-02-26T12:58:18;0.10;;;0.10;;
32876;SDS011;19226;51.600;8.034;2024-02-26T13:01:08;0.10;;;0.10;;
32876;SDS011;19226;51.600;8.034;2024-02-26T13:03:59;0.10;;;0.10;;
32876;SDS011;19226;51.600;8.034;2024-02-26T13:06:44;0.10;;;0.10;;
32876;SDS011;19226;51.600;8.034;2024-02-26T13:09:34;0.17;;;0.17;;
32876;SDS011;19226;51.600;8.034;2024-02-26T13:12:21;0.10;;;0.10;;
32876;SDS011;19226;51.600;8.034;2024-02-26T13:15:07;0.10;;;0.10;;
32876;SDS011;19226;51.600;8.034;2024-02-26T13:17:57;0.10;;;0.10;;
32876;SDS011;19226;51.600;8.034;2024-02-26T13:20:41;0.10;;;0.10;;
32876;SDS011;19226;51.600;8.034;2024-02-26T13:23:26;0.10;;;0.10;;
32876;SDS011;19226;51.600;8.034;2024-02-26T13:26:11;0.10;;;0.10;;
32876;SDS011;19226;51.600;8.034;2024-02-26T13:29:00;0.10;;;0.10;;
32876;SDS011;19226;51.600;8.034;2024-02-26T13:31:48;0.10;;;0.10;;
32876;SDS011;19226;51.600;8.034;2024-02-26T13:34:37;0.10;;;0.10;;
32876;SDS011;19226;51.600;8.034;2024-02-26T13:37:21;0.13;;;0.13;;
32876;SDS011;19226;51.600;8.034;2024-02-26T13:40:09;0.17;;;0.17;;
32876;SDS011;19226;51.600;8.034;2024-02-26T13:42:55;0.20;;;0.20;;
32876;SDS011;19226;51.600;8.034;2024-02-26T13:45:40;0.10;;;0.10;;
32876;SDS011;19226;51.600;8.034;2024-02-26T13:48:24;0.10;;;0.10;;
32876;SDS011;19226;51.600;8.034;2024-02-26T13:51:10;0.10;;;0.10;;
32876;SDS011;19226;51.600;8.034;2024-02-26T13:53:54;0.10;;;0.10;;
32876;SDS011;19226;51.600;8.034;2024-02-26T13:56:39;0.10;;;0.10;;
32876;SDS011;19226;51.600;8.034;2024-02-26T13:59:23;0.10;;;0.10;;
32876;SDS011;19226;51.600;8.034;2024-02-26T14:02:08;0.10;;;0.10;;
32876;SDS011;19226;51.600;8.034;2024-02-26T14:04:53;0.10;;;0.10;;
32876;SDS011;19226;51.600;8.034;2024-02-26T14:07:38;0.10;;;0.10;;
32876;SDS011;19226;51.600;8.034;2024-02-26T14:10:23;0.10;;;0.10;;
32876;SDS011;19226;51.600;8.034;2024-02-26T14:13:07;0.10;;;0.10;;
32876;SDS011;19226;51.600;8.034;2024-02-26T14:15:52;0.10;;;0.10;;
32876;SDS011;19226;51.600;8.034;2024-02-26T14:18:36;0.10;;;0.10;;
32876;SDS011;19226;51.600;8.034;2024-02-26T14:21:21;0.10;;;0.10;;
32876;SDS011;19226;51.600;8.034;2024-02-26T14:24:05;0.10;;;0.10;;
32876;SDS011;19226;51.600;8.034;2024-02-26T14:26:50;0.10;;;0.10;;
32876;SDS011;19226;51.600;8.034;2024-02-26T14:29:34;0.10;;;0.10;;
32876;SDS011;19226;51.600;8.034;2024-02-26T14:32:19;0.10;;;0.10;;
32876;SDS011;19226;51.600;8.034;2024-02-26T14:35:05;0.10;;;0.10;;
32876;SDS011;19226;51.600;8.034;2024-02-26T14:37:51;0.10;;;0.10;;
32876;SDS011;19226;51.600;8.034;2024-02-26T14:40:35;0.10;;;0.10;;
32876;SDS011;19226;51.600;8.034;2024-02-26T14:43:20;0.15;;;0.15;;
32876;SDS011;19226;51.600;8.034;2024-02-26T14:46:04;0.20;;;0.20;;
32876;SDS011;19226;51.600;8.034;2024-02-26T14:48:49;0.10;;;0.10;;
32876;SDS011;19226;51.600;8.034;2024-02-26T14:51:33;0.10;;;0.10;;
32876;SDS011;19226;51.600;8.034;2024-02-26T14:54:18;0.10;;;0.10;;
32876;SDS011;19226;51.600;8.034;2024-02-26T14:57:03;0.10;;;0.10;;
32876;SDS011;19226;51.600;8.034;2024-02-26T14:59:49;0.10;;;0.10;;
32876;SDS011;19226;51.600;8.034;2024-02-26T15:02:34;0.10;;;0.10;;
32876;SDS011;19226;51.600;8.034;2024-02-26T15:05:19;0.10;;;0.10;;
32876;SDS011;19226;51.600;8.034;2024-02-26T15:08:04;0.10;;;0.10;;
32876;SDS011;19226;51.600;8.034;2024-02-26T15:10:49;0.10;;;0.10;;
32876;SDS011;19226;51.600;8.034;2024-02-26T15:13:35;0.10;;;0.10;;
32876;SDS011;19226;51.600;8.034;2024-02-26T15:16:20;0.10;;;0.10;;
32876;SDS011;19226;51.600;8.034;2024-02-26T15:19:04;0.10;;;0.10;;
32876;SDS011;19226;51.600;8.034;2024-02-26T15:21:50;0.20;;;0.20;;
32876;SDS011;19226;51.600;8.034;2024-02-26T15:24:35;0.20;;;0.20;;
32876;SDS011;19226;51.600;8.034;2024-02-26T15:27:20;0.10;;;0.10;;
32876;SDS011;19226;51.600;8.034;2024-02-26T15:30:04;0.20;;;0.20;;
32876;SDS011;19226;51.600;8.034;2024-02-26T15:32:49;0.10;;;0.10;;
32876;SDS011;19226;51.600;8.034;2024-02-26T15:35:34;0.20;;;0.20;;
32876;SDS011;19226;51.600;8.034;2024-02-26T15:38:20;0.20;;;0.20;;
32876;SDS011;19226;51.600;8.034;2024-02-26T15:41:14;0.20;;;0.20;;
32876;SDS011;19226;51.600;8.034;2024-02-26T15:44:00;0.20;;;0.20;;
32876;SDS011;19226;51.600;8.034;2024-02-26T15:46:45;0.20;;;0.20;;
32876;SDS011;19226;51.600;8.034;2024-02-26T15:49:30;0.10;;;0.10;;
32876;SDS011;19226;51.600;8.034;2024-02-26T15:52:14;0.10;;;0.10;;
32876;SDS011;19226;51.600;8.034;2024-02-26T15:54:59;0.10;;;0.10;;
32876;SDS011;19226;51.600;8.034;2024-02-26T15:57:43;0.10;;;0.10;;
32876;SDS011;19226;51.600;8.034;2024-02-26T16:00:28;0.10;;;0.10;;
32876;SDS011;19226;51.600;8.034;2024-02-26T16:03:12;0.20;;;0.20;;
32876;SDS011;19226;51.600;8.034;2024-02-26T16:05:57;0.20;;;0.20;;
32876;SDS011;19226;51.600;8.034;2024-02-26T16:08:42;0.20;;;0.20;;
32876;SDS011;19226;51.600;8.034;2024-02-26T16:11:26;0.20;;;0.20;;
32876;SDS011;19226;51.600;8.034;2024-02-26T16:17:04;0.20;;;0.20;;
32876;SDS011;19226;51.600;8.034;2024-02-26T16:20:01;0.20;;;0.20;;
32876;SDS011;19226;51.600;8.034;2024-02-26T16:22:52;0.20;;;0.20;;
32876;SDS011;19226;51.600;8.034;2024-02-26T16:25:37;0.20;;;0.20;;
32876;SDS011;19226;51.600;8.034;2024-02-26T16:28:22;0.20;;;0.20;;
32876;SDS011;19226;51.600;8.034;2024-02-26T16:31:09;0.20;;;0.20;;
32876;SDS011;19226;51.600;8.034;2024-02-26T16:33:53;0.20;;;0.20;;
32876;SDS011;19226;51.600;8.034;2024-02-26T16:36:38;0.10;;;0.10;;
32876;SDS011;19226;51.600;8.034;2024-02-26T16:39:23;0.20;;;0.20;;
32876;SDS011;19226;51.600;8.034;2024-02-26T16:42:08;0.20;;;0.20;;
32876;SDS011;19226;51.600;8.034;2024-02-26T16:44:54;0.20;;;0.20;;
32876;SDS011;19226;51.600;8.034;2024-02-26T16:47:43;0.20;;;0.20;;